Tatum, Mississippi
Current Conditions -  °F | °C
As of 3:53 PM on Sunday 23 Nov 2014 (Local Time) from KMCB Reporting Station
Few Clouds Few Clouds  
Wind Chill: 72°   Ceiling: Unl
Heat Index: 72°   Visibility: 10mi
Dew Point: 57°   Wind: 14mph
Humidity: 59%   Direction: 210°SSW
Pressure: 29.59"   Gusts: 25mph
Location:  31.1819°N, 90.9008°W
Report Text: KMCB 232153Z AUTO 21012G22KT 10SM FEW036 22/14 A2959 RMK AO2 SLP014 T02220139
Loading
Personal Weather Stations






























Interactive Weather Map New forecast layout! Learn more

10-Day Weather Forecast

Advertisements
Track Severe Weather on mobile